createdAt,value
2023-04-21T00:00:36.858Z,0.00
2023-04-21T00:01:36.847Z,0.00
2023-04-21T00:02:36.930Z,0.00
2023-04-21T00:03:37.073Z,0.00
2023-04-21T00:04:36.984Z,0.00
2023-04-21T00:05:36.989Z,0.00
2023-04-21T00:06:36.795Z,0.00
2023-04-21T00:07:36.796Z,0.00
2023-04-21T00:08:36.771Z,0.00
2023-04-21T00:09:36.760Z,0.00
2023-04-21T00:10:36.793Z,0.00
2023-04-21T00:11:36.755Z,0.00
2023-04-21T00:12:36.735Z,0.00
2023-04-21T00:13:36.746Z,0.00
2023-04-21T00:14:36.707Z,0.00
2023-04-21T00:15:36.748Z,0.00
2023-04-21T00:16:36.755Z,0.00
2023-04-21T00:17:36.728Z,0.00
2023-04-21T00:18:36.695Z,0.00
2023-04-21T00:19:36.653Z,0.00
2023-04-21T00:20:36.643Z,0.00
2023-04-21T00:21:36.633Z,0.00
2023-04-21T00:22:36.643Z,0.00
2023-04-21T00:23:36.614Z,0.00
2023-04-21T00:24:36.601Z,0.00
2023-04-21T00:25:36.588Z,0.00
2023-04-21T00:26:36.594Z,0.00
2023-04-21T00:27:36.574Z,0.00
2023-04-21T00:28:36.568Z,0.00
2023-04-21T00:29:36.546Z,0.00
2023-04-21T00:30:36.533Z,0.00
2023-04-21T00:31:36.573Z,0.00
2023-04-21T00:32:36.570Z,0.00
2023-04-21T00:33:36.500Z,0.00
2023-04-21T00:34:37.073Z,0.00
2023-04-21T00:35:36.488Z,0.00
2023-04-21T00:36:36.477Z,0.00
2023-04-21T00:37:36.481Z,0.00
2023-04-21T00:38:36.469Z,0.00
2023-04-21T00:39:36.433Z,0.00
2023-04-21T00:40:36.428Z,0.00
2023-04-21T00:41:36.414Z,0.00
2023-04-21T00:42:43.925Z,0.00
2023-04-21T00:43:36.409Z,0.00
2023-04-21T00:44:36.381Z,0.00
2023-04-21T00:45:36.375Z,0.00
2023-04-21T00:46:36.374Z,0.00
2023-04-21T00:47:36.461Z,0.00
2023-04-21T00:48:36.352Z,0.00
2023-04-21T00:49:36.328Z,0.00
2023-04-21T00:50:36.341Z,0.00
2023-04-21T00:51:36.312Z,0.00
2023-04-21T00:52:36.332Z,0.00
2023-04-21T00:53:36.285Z,0.00
2023-04-21T00:54:36.288Z,0.00
2023-04-21T00:55:36.270Z,0.00
2023-04-21T00:56:36.253Z,0.00
2023-04-21T00:57:36.254Z,0.00
2023-04-21T00:58:36.232Z,0.00
2023-04-21T00:59:36.237Z,0.00
2023-04-21T01:00:36.238Z,0.00
2023-04-21T01:01:36.197Z,0.00
2023-04-21T01:02:36.368Z,0.00
2023-04-21T01:03:36.391Z,0.00
2023-04-21T01:04:36.183Z,0.00
2023-04-21T01:05:36.157Z,0.00
2023-04-21T01:06:36.169Z,0.00
2023-04-21T01:07:36.144Z,0.00
2023-04-21T01:08:36.146Z,0.00
2023-04-21T01:09:36.116Z,0.00
2023-04-21T01:10:36.115Z,0.00
2023-04-21T01:11:36.093Z,0.00
2023-04-21T01:12:36.094Z,0.00
2023-04-21T01:13:36.101Z,0.00
2023-04-21T01:14:36.064Z,0.00
2023-04-21T01:15:36.049Z,0.00
2023-04-21T01:16:36.116Z,0.00
2023-04-21T01:17:36.057Z,0.00
2023-04-21T01:18:36.032Z,0.00
2023-04-21T01:19:36.009Z,0.00
2023-04-21T01:20:36.003Z,0.00
2023-04-21T01:21:35.984Z,0.00
2023-04-21T01:22:36.011Z,0.00
2023-04-21T01:23:35.982Z,0.00
2023-04-21T01:24:35.954Z,0.00
2023-04-21T01:25:35.947Z,0.00
2023-04-21T01:26:35.942Z,0.00
2023-04-21T01:27:35.919Z,0.00
2023-04-21T01:28:35.921Z,0.00
2023-04-21T01:29:35.901Z,0.00
2023-04-21T01:30:35.913Z,0.00
2023-04-21T01:31:35.946Z,0.00
2023-04-21T01:32:35.899Z,0.00
2023-04-21T01:33:35.869Z,0.00
2023-04-21T01:34:35.843Z,0.00
2023-04-21T01:35:35.835Z,0.00
2023-04-21T01:36:35.823Z,0.00
2023-04-21T01:37:35.816Z,0.00
2023-04-21T01:38:35.845Z,0.00
2023-04-21T01:39:35.808Z,0.00
2023-04-21T01:40:35.780Z,0.00
2023-04-21T01:41:35.773Z,0.00
2023-04-21T01:42:35.775Z,0.00
2023-04-21T01:43:35.761Z,0.00
2023-04-21T01:44:35.738Z,0.00
2023-04-21T01:45:35.768Z,0.00
2023-04-21T01:46:35.866Z,0.00
2023-04-21T01:47:35.760Z,0.00
2023-04-21T01:48:35.707Z,0.00
2023-04-21T01:49:35.687Z,0.00
2023-04-21T01:50:35.685Z,0.00
2023-04-21T01:51:35.681Z,0.00
2023-04-21T01:52:35.655Z,0.00
2023-04-21T01:53:35.665Z,0.00
2023-04-21T01:54:35.660Z,0.00
2023-04-21T01:55:35.647Z,0.00
2023-04-21T01:56:35.678Z,0.00
2023-04-21T01:57:35.614Z,0.00
2023-04-21T01:58:35.601Z,0.00
2023-04-21T01:59:35.606Z,0.00
2023-04-21T02:00:35.610Z,0.00
2023-04-21T02:01:35.613Z,0.00
2023-04-21T02:02:35.660Z,0.00
2023-04-21T02:03:35.621Z,0.00
2023-04-21T02:04:35.765Z,0.00
2023-04-21T02:05:35.571Z,0.00
2023-04-21T02:06:35.511Z,0.00
2023-04-21T02:07:35.493Z,0.00
2023-04-21T02:08:35.481Z,0.00
2023-04-21T02:09:35.482Z,0.00
2023-04-21T02:10:35.498Z,0.00
2023-04-21T02:11:35.458Z,0.00
2023-04-21T02:12:35.441Z,0.00
2023-04-21T02:13:35.430Z,0.00
2023-04-21T02:14:35.412Z,0.00
2023-04-21T02:15:35.474Z,0.00
2023-04-21T02:16:35.429Z,0.00
2023-04-21T02:17:35.435Z,0.00
2023-04-21T02:18:35.368Z,0.00
2023-04-21T02:19:35.358Z,0.00
2023-04-21T02:20:35.389Z,0.00
2023-04-21T02:21:35.353Z,0.00
2023-04-21T02:22:35.324Z,0.00
2023-04-21T02:23:35.324Z,0.00
2023-04-21T02:24:35.302Z,0.00
2023-04-21T02:25:35.310Z,0.00
2023-04-21T02:26:35.309Z,0.00
2023-04-21T02:27:35.281Z,0.00
2023-04-21T02:28:35.258Z,0.00
2023-04-21T02:29:35.252Z,0.00
2023-04-21T02:30:35.253Z,0.00
2023-04-21T02:31:46.100Z,0.00
2023-04-21T02:32:35.352Z,0.00
2023-04-21T02:33:35.216Z,0.00
2023-04-21T02:34:35.201Z,0.00
2023-04-21T02:35:35.185Z,0.00
2023-04-21T02:36:35.184Z,0.00
2023-04-21T02:37:35.173Z,0.00
2023-04-21T02:38:35.156Z,0.00
2023-04-21T02:39:35.142Z,0.00
2023-04-21T02:40:35.132Z,0.00
2023-04-21T02:41:35.137Z,0.00
2023-04-21T02:42:35.134Z,0.00
2023-04-21T02:43:42.614Z,0.00
2023-04-21T02:44:35.085Z,0.00
2023-04-21T02:45:35.086Z,0.00
2023-04-21T02:46:35.086Z,0.00
2023-04-21T02:47:35.141Z,0.00
2023-04-21T02:48:35.041Z,0.00
2023-04-21T02:49:35.034Z,0.00
2023-04-21T02:50:35.020Z,0.00
2023-04-21T02:51:35.016Z,0.00
2023-04-21T02:52:35.007Z,0.00
2023-04-21T02:53:34.990Z,0.00
2023-04-21T02:54:34.976Z,0.00
2023-04-21T02:55:34.971Z,0.00
2023-04-21T02:56:34.950Z,0.00
2023-04-21T02:57:34.965Z,0.00
2023-04-21T02:58:34.962Z,0.00
2023-04-21T02:59:34.929Z,0.00
2023-04-21T03:00:34.973Z,0.00
2023-04-21T03:01:34.900Z,0.00
2023-04-21T03:02:35.146Z,0.00
2023-04-21T03:03:34.992Z,0.00
2023-04-21T03:04:35.005Z,0.00
2023-04-21T03:05:34.855Z,0.00
2023-04-21T03:06:34.846Z,0.00
2023-04-21T03:07:34.837Z,0.00
2023-04-21T03:08:34.843Z,0.00
2023-04-21T03:09:34.905Z,0.00
2023-04-21T03:10:34.800Z,0.00
2023-04-21T03:11:34.795Z,0.00
2023-04-21T03:12:34.792Z,0.00
2023-04-21T03:13:34.768Z,0.00
2023-04-21T03:14:34.790Z,0.00
2023-04-21T03:15:34.748Z,0.00
2023-04-21T03:16:34.773Z,0.00
2023-04-21T03:17:34.732Z,0.00
2023-04-21T03:18:34.725Z,0.00
2023-04-21T03:19:34.701Z,0.00
2023-04-21T03:20:34.687Z,0.00
2023-04-21T03:21:34.694Z,0.00
2023-04-21T03:22:34.665Z,0.00
2023-04-21T03:23:34.673Z,0.00
2023-04-21T03:24:34.644Z,0.00
2023-04-21T03:25:34.652Z,0.00
2023-04-21T03:26:34.621Z,0.00
2023-04-21T03:27:34.619Z,0.00
2023-04-21T03:28:34.599Z,0.00
2023-04-21T03:29:34.594Z,0.00
2023-04-21T03:30:34.610Z,0.00
2023-04-21T03:31:34.611Z,0.00
2023-04-21T03:32:34.590Z,0.00
2023-04-21T03:33:34.553Z,0.00
2023-04-21T03:34:34.539Z,0.00
2023-04-21T03:35:34.534Z,0.00
2023-04-21T03:36:34.524Z,0.00
2023-04-21T03:37:34.504Z,0.00
2023-04-21T03:38:34.491Z,0.00
2023-04-21T03:39:34.494Z,0.00
2023-04-21T03:40:34.467Z,0.00
2023-04-21T03:41:34.474Z,0.00
2023-04-21T03:42:34.453Z,0.00
2023-04-21T03:43:34.463Z,0.00
2023-04-21T03:44:34.448Z,4.00
2023-04-21T03:45:34.474Z,4.00
2023-04-21T03:46:34.518Z,0.00
2023-04-21T03:47:34.433Z,0.00
2023-04-21T03:48:34.394Z,4.00
2023-04-21T03:49:34.385Z,0.00
2023-04-21T03:50:34.359Z,4.00
2023-04-21T03:51:34.363Z,0.00
2023-04-21T03:52:34.340Z,4.00
2023-04-21T03:53:34.329Z,4.00
2023-04-21T03:54:34.333Z,4.00
2023-04-21T03:55:34.319Z,4.00
2023-04-21T03:56:34.294Z,8.00
2023-04-21T03:57:34.300Z,8.00
2023-04-21T03:58:34.272Z,4.00
2023-04-21T03:59:34.278Z,8.00
2023-04-21T04:00:34.259Z,8.00
2023-04-21T04:01:34.248Z,8.00
2023-04-21T04:02:34.378Z,12.00
2023-04-21T04:03:34.468Z,8.00
2023-04-21T04:04:34.368Z,16.00
2023-04-21T04:05:34.261Z,12.00
2023-04-21T04:06:34.246Z,16.00
2023-04-21T04:07:34.175Z,20.00
2023-04-21T04:08:34.162Z,24.00
2023-04-21T04:09:34.158Z,24.00
2023-04-21T04:10:34.143Z,32.00
2023-04-21T04:11:34.146Z,36.00
2023-04-21T04:12:34.142Z,44.00
2023-04-21T04:13:34.112Z,52.00
2023-04-21T04:14:34.109Z,64.00
2023-04-21T04:15:34.091Z,76.00
2023-04-21T04:16:34.118Z,88.00
2023-04-21T04:17:34.096Z,104.00
2023-04-21T04:18:34.080Z,124.00
2023-04-21T04:19:34.050Z,140.00
2023-04-21T04:20:34.055Z,164.00
2023-04-21T04:21:34.036Z,188.00
2023-04-21T04:22:34.024Z,220.00
2023-04-21T04:23:34.006Z,252.00
2023-04-21T04:24:33.989Z,292.00
2023-04-21T04:25:33.981Z,328.00
2023-04-21T04:26:34.031Z,372.00
2023-04-21T04:27:33.958Z,420.00
2023-04-21T04:28:33.964Z,464.00
2023-04-21T04:29:33.944Z,512.00
2023-04-21T04:30:33.936Z,568.00
2023-04-21T04:31:33.974Z,624.00
2023-04-21T04:32:33.935Z,680.00
2023-04-21T04:33:33.893Z,748.00
2023-04-21T04:34:33.896Z,808.00
2023-04-21T04:35:33.879Z,872.00
2023-04-21T04:36:33.871Z,940.00
2023-04-21T04:37:33.852Z,1004.00
2023-04-21T04:38:34.643Z,1072.00
2023-04-21T04:39:33.846Z,1140.00
2023-04-21T04:40:33.820Z,1200.00
2023-04-21T04:41:33.827Z,1256.00
2023-04-21T04:42:33.801Z,1320.00
2023-04-21T04:43:33.797Z,1384.00
2023-04-21T04:44:41.299Z,1440.00
2023-04-21T04:45:33.758Z,1484.00
2023-04-21T04:46:33.810Z,1528.00
2023-04-21T04:47:33.822Z,1572.00
2023-04-21T04:48:33.724Z,1628.00
2023-04-21T04:49:33.722Z,1696.00
2023-04-21T04:50:33.759Z,1784.00
2023-04-21T04:51:33.810Z,1876.00
2023-04-21T04:52:33.676Z,1972.00
2023-04-21T04:53:33.680Z,2068.00
2023-04-21T04:54:33.664Z,2148.00
2023-04-21T04:55:33.647Z,2232.00
2023-04-21T04:56:33.633Z,2328.00
2023-04-21T04:57:33.621Z,2448.00
2023-04-21T04:58:33.637Z,2576.00
2023-04-21T04:59:33.601Z,2684.00
2023-04-21T05:00:33.597Z,2752.00
2023-04-21T05:01:33.650Z,2804.00
2023-04-21T05:02:33.764Z,2852.00
2023-04-21T05:03:33.806Z,2912.00
2023-04-21T05:04:33.669Z,2984.00
2023-04-21T05:05:33.562Z,3080.00
2023-04-21T05:06:33.542Z,3180.00
2023-04-21T05:07:33.520Z,3244.00
2023-04-21T05:08:33.500Z,3308.00
2023-04-21T05:09:33.511Z,3384.00
2023-04-21T05:10:33.483Z,3468.00
2023-04-21T05:11:33.473Z,3556.00
2023-04-21T05:12:33.475Z,3632.00
2023-04-21T05:13:33.464Z,3712.00
2023-04-21T05:14:33.442Z,3788.00
2023-04-21T05:15:33.447Z,3844.00
2023-04-21T05:16:33.435Z,3900.00
2023-04-21T05:17:33.447Z,3980.00
2023-04-21T05:18:33.416Z,4056.00
2023-04-21T05:19:33.388Z,4076.00
2023-04-21T05:20:33.391Z,4004.00
2023-04-21T05:21:33.386Z,3892.00
2023-04-21T05:22:33.528Z,3812.00
2023-04-21T05:23:33.349Z,3876.00
2023-04-21T05:24:33.331Z,4000.00
2023-04-21T05:25:33.334Z,4156.00
2023-04-21T05:26:33.309Z,4276.00
2023-04-21T05:27:33.298Z,4388.00
2023-04-21T05:28:33.369Z,4540.00
2023-04-21T05:29:33.277Z,4720.00
2023-04-21T05:30:33.280Z,4880.00
2023-04-21T05:31:33.283Z,5028.00
2023-04-21T05:32:33.426Z,5148.00
2023-04-21T05:33:33.235Z,5244.00
2023-04-21T05:34:33.220Z,5356.00
2023-04-21T05:35:33.646Z,5456.00
2023-04-21T05:36:33.210Z,5524.00
2023-04-21T05:37:33.197Z,5572.00
2023-04-21T05:38:33.330Z,5584.00
2023-04-21T05:39:33.181Z,5628.00
2023-04-21T05:40:33.154Z,5740.00
2023-04-21T05:41:33.149Z,5896.00
2023-04-21T05:42:33.135Z,6084.00
2023-04-21T05:43:33.133Z,6276.00
2023-04-21T05:44:33.147Z,6456.00
2023-04-21T05:45:33.098Z,6588.00
2023-04-21T05:46:33.130Z,6700.00
2023-04-21T05:47:33.114Z,6880.00
2023-04-21T05:48:33.104Z,6968.00
2023-04-21T05:49:33.100Z,7044.00
2023-04-21T05:50:33.054Z,7220.00
2023-04-21T05:51:33.044Z,7308.00
2023-04-21T05:52:33.041Z,7372.00
2023-04-21T05:53:33.013Z,7104.00
2023-04-21T05:54:33.030Z,6940.00
2023-04-21T05:55:33.044Z,6852.00
2023-04-21T05:56:33.006Z,6808.00
2023-04-21T05:57:33.006Z,6656.00
2023-04-21T05:58:32.972Z,6400.00
2023-04-21T05:59:32.998Z,6308.00
2023-04-21T06:00:32.955Z,6360.00
2023-04-21T06:01:32.930Z,6488.00
2023-04-21T06:02:33.101Z,6756.00
2023-04-21T06:03:33.044Z,7120.00
2023-04-21T06:04:33.048Z,7364.00
2023-04-21T06:05:33.005Z,7352.00
2023-04-21T06:06:32.913Z,7180.00
2023-04-21T06:07:32.909Z,7032.00
2023-04-21T06:08:32.905Z,7004.00
2023-04-21T06:09:32.865Z,7124.00
2023-04-21T06:10:32.868Z,7284.00
2023-04-21T06:11:32.818Z,7564.00
2023-04-21T06:12:32.829Z,7908.00
2023-04-21T06:13:32.814Z,8204.00
2023-04-21T06:14:32.828Z,8432.00
2023-04-21T06:15:32.774Z,8904.00
2023-04-21T06:16:32.849Z,9100.00
2023-04-21T06:17:32.782Z,9888.00
2023-04-21T06:18:32.777Z,9900.00
2023-04-21T06:19:32.779Z,10724.00
2023-04-21T06:20:32.722Z,11804.00
2023-04-21T06:21:32.762Z,11200.00
2023-04-21T06:22:32.734Z,11628.00
2023-04-21T06:23:32.723Z,13756.00
2023-04-21T06:24:32.705Z,13020.00
2023-04-21T06:25:32.667Z,14128.00
2023-04-21T06:26:32.700Z,14300.00
2023-04-21T06:27:32.646Z,14416.00
2023-04-21T06:28:32.692Z,14472.00
2023-04-21T06:29:32.634Z,14536.00
2023-04-21T06:30:32.637Z,14676.00
2023-04-21T06:31:32.643Z,14880.00
2023-04-21T06:32:32.667Z,15040.00
2023-04-21T06:33:32.679Z,15180.00
2023-04-21T06:34:32.620Z,15272.00
2023-04-21T06:35:32.553Z,15356.00
2023-04-21T06:36:32.555Z,15488.00
2023-04-21T06:37:32.531Z,15612.00
2023-04-21T06:38:32.528Z,15776.00
2023-04-21T06:39:32.523Z,16096.00
2023-04-21T06:40:32.503Z,15968.00
2023-04-21T06:41:32.488Z,15588.00
2023-04-21T06:42:32.504Z,15440.00
2023-04-21T06:43:32.463Z,15032.00
2023-04-21T06:44:32.510Z,14692.00
2023-04-21T06:45:39.968Z,14780.00
2023-04-21T06:46:32.470Z,13888.00
2023-04-21T06:47:35.246Z,13640.00
2023-04-21T06:48:32.418Z,14060.00
2023-04-21T06:49:32.418Z,13708.00
2023-04-21T06:50:32.405Z,14120.00
2023-04-21T06:51:32.407Z,13312.00
2023-04-21T06:52:32.375Z,12992.00
2023-04-21T06:53:32.349Z,12000.00
2023-04-21T06:54:32.401Z,11224.00
2023-04-21T06:55:32.388Z,11180.00
2023-04-21T06:56:32.374Z,11056.00
2023-04-21T06:57:32.321Z,11768.00
2023-04-21T06:58:32.311Z,12220.00
2023-04-21T06:59:32.304Z,12388.00
2023-04-21T07:00:32.298Z,12908.00
2023-04-21T07:01:32.349Z,13380.00
2023-04-21T07:02:32.411Z,13484.00
2023-04-21T07:03:32.346Z,13356.00
2023-04-21T07:04:32.516Z,13600.00
2023-04-21T07:05:32.259Z,13028.00
2023-04-21T07:06:32.246Z,12864.00
2023-04-21T07:07:32.220Z,12844.00
2023-04-21T07:08:32.220Z,12172.00
2023-04-21T07:09:32.187Z,11996.00
2023-04-21T07:10:32.217Z,11444.00
2023-04-21T07:11:32.180Z,11532.00
2023-04-21T07:12:32.219Z,12144.00
2023-04-21T07:13:32.177Z,12248.00
2023-04-21T07:14:32.147Z,12428.00
2023-04-21T07:15:32.114Z,11852.00
2023-04-21T07:16:32.158Z,12304.00
2023-04-21T07:17:32.114Z,12752.00
2023-04-21T07:18:32.096Z,12804.00
2023-04-21T07:19:32.093Z,12332.00
2023-04-21T07:20:32.098Z,12112.00
2023-04-21T07:21:32.069Z,12212.00
2023-04-21T07:22:32.061Z,12672.00
2023-04-21T07:23:32.034Z,12616.00
2023-04-21T07:24:32.022Z,12632.00
2023-04-21T07:25:32.017Z,13328.00
2023-04-21T07:26:32.030Z,14216.00
2023-04-21T07:27:31.982Z,16256.00
2023-04-21T07:28:32.009Z,16576.00
2023-04-21T07:29:31.990Z,16288.00
2023-04-21T07:30:31.988Z,13988.00
2023-04-21T07:31:32.031Z,12564.00
2023-04-21T07:32:31.980Z,11880.00
2023-04-21T07:33:31.918Z,11764.00
2023-04-21T07:34:31.907Z,12096.00
2023-04-21T07:35:31.903Z,12316.00
2023-04-21T07:36:32.416Z,12912.00
2023-04-21T07:37:31.878Z,13456.00
2023-04-21T07:38:31.894Z,13964.00
2023-04-21T07:39:31.861Z,14780.00
2023-04-21T07:40:31.861Z,14560.00
2023-04-21T07:41:31.847Z,14764.00
2023-04-21T07:42:31.824Z,14908.00
2023-04-21T07:43:31.838Z,14256.00
2023-04-21T07:44:31.829Z,13848.00
2023-04-21T07:45:31.811Z,14552.00
2023-04-21T07:46:31.929Z,13868.00
2023-04-21T07:47:31.810Z,13500.00
2023-04-21T07:48:31.766Z,13440.00
2023-04-21T07:49:31.740Z,12076.00
2023-04-21T07:50:31.835Z,11708.00
2023-04-21T07:51:31.734Z,11428.00
2023-04-21T07:52:31.712Z,11304.00
2023-04-21T07:53:31.705Z,11336.00
2023-04-21T07:54:32.016Z,11452.00
2023-04-21T07:55:31.694Z,11572.00
2023-04-21T07:56:31.695Z,11720.00
2023-04-21T07:57:31.652Z,11920.00
2023-04-21T07:58:31.646Z,12356.00
2023-04-21T07:59:31.651Z,12820.00
2023-04-21T08:00:31.632Z,14400.00
2023-04-21T08:01:31.688Z,13176.00
2023-04-21T08:02:31.695Z,12980.00
2023-04-21T08:03:31.757Z,12860.00
2023-04-21T08:04:31.755Z,12812.00
2023-04-21T08:05:34.122Z,13028.00
2023-04-21T08:06:31.896Z,12880.00
2023-04-21T08:07:31.775Z,12860.00
2023-04-21T08:08:32.126Z,12784.00
2023-04-21T08:09:31.534Z,12720.00
2023-04-21T08:10:31.534Z,12748.00
2023-04-21T08:11:31.512Z,12732.00
2023-04-21T08:12:31.539Z,12760.00
2023-04-21T08:13:31.548Z,12960.00
2023-04-21T08:14:31.477Z,13180.00
2023-04-21T08:15:31.470Z,13184.00
2023-04-21T08:16:31.507Z,13196.00
2023-04-21T08:17:31.480Z,13192.00
2023-04-21T08:18:31.476Z,13244.00
2023-04-21T08:19:31.453Z,13380.00
2023-04-21T08:20:31.410Z,13664.00
2023-04-21T08:21:31.599Z,13956.00
2023-04-21T08:22:31.468Z,14384.00
2023-04-21T08:23:32.395Z,14752.00
2023-04-21T08:24:31.485Z,15364.00
2023-04-21T08:25:31.474Z,16452.00
2023-04-21T08:26:31.366Z,18400.00
2023-04-21T08:27:31.339Z,23072.00
2023-04-21T08:28:31.317Z,24096.00
2023-04-21T08:29:31.328Z,28288.00
2023-04-21T08:30:31.316Z,26912.00
2023-04-21T08:31:31.403Z,27520.00
2023-04-21T08:32:31.296Z,27520.00
2023-04-21T08:33:31.285Z,27040.00
2023-04-21T08:34:31.487Z,27072.00
2023-04-21T08:35:31.291Z,26624.00
2023-04-21T08:36:31.262Z,26624.00
2023-04-21T08:37:31.258Z,26400.00
2023-04-21T08:38:31.216Z,26432.00
2023-04-21T08:39:31.213Z,26208.00
2023-04-21T08:40:31.188Z,25152.00
2023-04-21T08:41:31.186Z,23392.00
2023-04-21T08:42:31.164Z,23808.00
2023-04-21T08:43:31.191Z,23104.00
2023-04-21T08:44:31.153Z,21728.00
2023-04-21T08:45:31.170Z,21088.00
2023-04-21T08:46:39.296Z,20512.00
2023-04-21T08:47:31.141Z,24544.00
2023-04-21T08:48:31.114Z,20480.00
2023-04-21T08:49:31.119Z,16968.00
2023-04-21T08:50:31.098Z,16752.00
2023-04-21T08:51:31.102Z,17440.00
2023-04-21T08:52:32.061Z,18240.00
2023-04-21T08:53:31.057Z,17984.00
2023-04-21T08:54:31.061Z,18080.00
2023-04-21T08:55:31.041Z,18272.00
2023-04-21T08:56:31.090Z,18176.00
2023-04-21T08:57:31.004Z,17728.00
2023-04-21T08:58:31.009Z,16672.00
2023-04-21T08:59:31.086Z,16036.00
2023-04-21T09:00:31.162Z,15400.00
2023-04-21T09:01:31.073Z,15304.00
2023-04-21T09:02:31.223Z,16048.00
2023-04-21T09:03:31.160Z,16896.00
2023-04-21T09:04:31.189Z,17504.00
2023-04-21T09:05:31.106Z,19296.00
2023-04-21T09:06:31.102Z,20384.00
2023-04-21T09:07:30.896Z,24640.00
2023-04-21T09:08:30.889Z,23680.00
2023-04-21T09:09:30.890Z,18432.00
2023-04-21T09:10:30.900Z,16524.00
2023-04-21T09:11:30.853Z,15960.00
2023-04-21T09:12:30.833Z,15784.00
2023-04-21T09:13:30.879Z,15720.00
2023-04-21T09:14:30.814Z,16436.00
2023-04-21T09:15:30.815Z,17248.00
2023-04-21T09:16:30.875Z,18496.00
2023-04-21T09:17:30.853Z,20480.00
2023-04-21T09:18:30.780Z,27584.00
2023-04-21T09:19:30.752Z,22720.00
2023-04-21T09:20:30.758Z,24640.00
2023-04-21T09:21:32.229Z,23776.00
2023-04-21T09:22:30.759Z,27456.00
2023-04-21T09:23:30.752Z,21536.00
2023-04-21T09:24:30.708Z,21472.00
2023-04-21T09:25:30.705Z,23136.00
2023-04-21T09:26:30.820Z,20192.00
2023-04-21T09:27:30.704Z,21280.00
2023-04-21T09:28:30.661Z,23072.00
2023-04-21T09:29:30.646Z,31008.00
2023-04-21T09:30:30.637Z,29792.00
2023-04-21T09:31:30.674Z,28896.00
2023-04-21T09:32:30.657Z,29280.00
2023-04-21T09:33:36.485Z,30304.00
2023-04-21T09:34:30.638Z,28960.00
2023-04-21T09:35:30.592Z,24640.00
2023-04-21T09:36:31.131Z,29184.00
2023-04-21T09:37:30.565Z,28544.00
2023-04-21T09:38:30.945Z,28000.00
2023-04-21T09:39:43.106Z,28288.00
2023-04-21T09:40:31.549Z,28416.00
2023-04-21T09:41:30.514Z,28064.00
2023-04-21T09:42:30.506Z,27136.00
2023-04-21T09:43:30.502Z,27424.00
2023-04-21T09:44:33.910Z,24512.00
2023-04-21T09:45:39.750Z,27488.00
2023-04-21T09:46:30.539Z,24832.00
2023-04-21T09:47:30.516Z,25856.00
2023-04-21T09:48:30.441Z,27776.00
2023-04-21T09:49:30.469Z,27552.00
2023-04-21T09:51:48.559Z,28384.00
2023-04-21T09:52:30.428Z,21152.00
2023-04-21T09:53:31.129Z,20608.00
2023-04-21T09:54:30.685Z,16148.00
2023-04-21T09:55:30.370Z,17440.00
2023-04-21T09:56:30.357Z,18080.00
2023-04-21T09:57:30.353Z,19264.00
2023-04-21T09:58:30.339Z,17792.00
2023-04-21T09:59:30.374Z,18656.00
2023-04-21T10:00:30.328Z,22496.00
2023-04-21T10:01:30.337Z,28928.00
2023-04-21T10:02:30.471Z,28384.00
2023-04-21T10:03:30.426Z,27552.00
2023-04-21T10:04:30.918Z,26336.00
2023-04-21T10:05:30.292Z,23456.00
2023-04-21T10:06:30.255Z,27008.00
2023-04-21T10:07:30.238Z,25248.00
2023-04-21T10:08:30.221Z,21632.00
2023-04-21T10:09:30.220Z,28224.00
2023-04-21T10:10:30.310Z,22688.00
2023-04-21T10:11:30.195Z,26848.00
2023-04-21T10:12:30.256Z,19744.00
2023-04-21T10:13:31.174Z,21344.00
2023-04-21T10:14:30.159Z,27872.00
2023-04-21T10:15:30.190Z,27328.00
2023-04-21T10:16:30.763Z,27136.00
2023-04-21T10:17:30.179Z,26912.00
2023-04-21T10:18:30.126Z,27168.00
2023-04-21T10:19:30.429Z,27488.00
2023-04-21T10:20:30.103Z,27648.00
2023-04-21T10:21:30.095Z,26464.00
2023-04-21T10:22:30.069Z,27744.00
2023-04-21T10:23:30.060Z,27392.00
2023-04-21T10:24:30.061Z,26080.00
2023-04-21T10:25:30.047Z,17040.00
2023-04-21T10:26:30.041Z,16708.00
2023-04-21T10:27:30.030Z,15260.00
2023-04-21T10:28:30.010Z,23872.00
2023-04-21T10:29:34.785Z,16464.00
2023-04-21T10:30:29.997Z,17764.00
2023-04-21T10:31:30.144Z,19104.00
2023-04-21T10:32:30.101Z,15584.00
2023-04-21T10:33:29.968Z,13628.00
2023-04-21T10:34:29.945Z,16776.00
2023-04-21T10:35:29.978Z,21984.00
2023-04-21T10:36:29.931Z,16060.00
2023-04-21T10:37:29.917Z,15764.00
2023-04-21T10:38:29.898Z,25600.00
2023-04-21T10:39:29.908Z,24224.00
2023-04-21T10:40:42.608Z,25632.00
2023-04-21T10:41:30.931Z,16292.00
2023-04-21T10:42:29.944Z,16164.00
2023-04-21T10:43:29.859Z,15804.00
2023-04-21T10:44:29.875Z,16752.00
2023-04-21T10:45:29.848Z,18124.00
2023-04-21T10:46:29.900Z,26848.00
2023-04-21T10:47:37.447Z,26080.00
2023-04-21T10:48:29.782Z,24128.00
2023-04-21T10:49:29.775Z,24992.00
2023-04-21T10:50:29.760Z,22560.00
2023-04-21T10:51:30.313Z,17872.00
2023-04-21T10:52:29.744Z,25440.00
2023-04-21T10:53:29.734Z,24736.00
2023-04-21T10:54:29.719Z,18432.00
2023-04-21T10:55:29.738Z,18432.00
2023-04-21T10:56:29.711Z,17156.00
2023-04-21T10:57:29.734Z,13900.00
2023-04-21T10:58:29.696Z,15268.00
2023-04-21T10:59:29.669Z,15328.00
2023-04-21T11:00:29.683Z,16376.00
2023-04-21T11:01:29.685Z,14272.00
2023-04-21T11:02:29.832Z,13860.00
2023-04-21T11:03:29.847Z,16884.00
2023-04-21T11:04:30.236Z,18144.00
2023-04-21T11:05:29.636Z,13516.00
2023-04-21T11:06:29.586Z,13816.00
2023-04-21T11:07:29.583Z,13940.00
2023-04-21T11:08:29.612Z,13660.00
2023-04-21T11:09:29.589Z,13532.00
2023-04-21T11:10:29.654Z,13908.00
2023-04-21T11:11:29.585Z,14004.00
2023-04-21T11:12:29.545Z,14344.00
2023-04-21T11:13:29.581Z,14952.00
2023-04-21T11:14:29.534Z,16264.00
2023-04-21T11:15:29.523Z,17664.00
2023-04-21T11:16:29.544Z,14764.00
2023-04-21T11:17:29.516Z,14288.00
2023-04-21T11:18:29.448Z,16176.00
2023-04-21T11:19:29.462Z,15988.00
2023-04-21T11:20:29.442Z,17344.00
2023-04-21T11:21:29.420Z,15584.00
2023-04-21T11:22:29.409Z,16560.00
2023-04-21T11:23:29.398Z,16216.00
2023-04-21T11:24:29.398Z,16444.00
2023-04-21T11:25:29.375Z,17228.00
2023-04-21T11:26:29.360Z,25824.00
2023-04-21T11:27:29.364Z,17408.00
2023-04-21T11:28:29.349Z,16604.00
2023-04-21T11:29:29.347Z,21600.00
2023-04-21T11:30:29.366Z,16432.00
2023-04-21T11:31:29.430Z,22592.00
2023-04-21T11:32:29.395Z,17088.00
2023-04-21T11:33:29.319Z,19008.00
2023-04-21T11:34:29.277Z,15940.00
2023-04-21T11:35:29.269Z,15480.00
2023-04-21T11:36:29.256Z,16796.00
2023-04-21T11:37:29.264Z,16796.00
2023-04-21T11:38:29.232Z,16480.00
2023-04-21T11:39:29.241Z,22304.00
2023-04-21T11:40:29.219Z,15952.00
2023-04-21T11:41:29.204Z,16452.00
2023-04-21T11:42:29.298Z,25792.00
2023-04-21T11:43:29.181Z,25280.00
2023-04-21T11:44:29.166Z,22240.00
2023-04-21T11:45:29.250Z,16156.00
2023-04-21T11:46:29.217Z,16960.00
2023-04-21T11:47:29.231Z,25536.00
2023-04-21T11:48:29.143Z,22272.00
2023-04-21T11:49:29.118Z,18368.00
2023-04-21T11:50:29.108Z,18016.00
2023-04-21T11:51:29.120Z,18176.00
2023-04-21T11:52:29.118Z,19520.00
2023-04-21T11:53:29.074Z,19712.00
2023-04-21T11:54:29.060Z,20032.00
2023-04-21T11:55:29.065Z,26144.00
2023-04-21T11:56:29.058Z,26080.00
2023-04-21T11:57:29.029Z,20576.00
2023-04-21T11:58:29.028Z,18464.00
2023-04-21T11:59:29.027Z,17472.00
2023-04-21T12:00:29.004Z,16964.00
2023-04-21T12:01:28.988Z,16936.00
2023-04-21T12:02:29.159Z,17920.00
2023-04-21T12:03:29.131Z,24736.00
2023-04-21T12:04:31.523Z,20064.00
2023-04-21T12:05:28.959Z,17504.00
2023-04-21T12:06:28.933Z,24768.00
2023-04-21T12:07:28.922Z,19936.00
2023-04-21T12:08:28.926Z,20224.00
2023-04-21T12:09:28.903Z,18912.00
2023-04-21T12:10:28.891Z,16168.00
2023-04-21T12:11:28.885Z,24192.00
2023-04-21T12:12:28.873Z,23680.00
2023-04-21T12:13:28.868Z,23328.00
2023-04-21T12:14:28.855Z,22400.00
2023-04-21T12:15:28.865Z,15660.00
2023-04-21T12:16:28.866Z,20000.00
2023-04-21T12:17:28.838Z,12904.00
2023-04-21T12:18:28.832Z,12244.00
2023-04-21T12:19:28.791Z,12684.00